Time;durP1;ratioP1;P1;durP2;ratioP2;P2;SDS_P1;SDS_P2;PMS_P1;PMS_P2;Temp;Humidity;BMP_temperature;BMP_pressure;BME280_temperature;BME280_humidity;BME280_pressure;Samples;Min_cycle;Max_cycle;Signal;HPM_P1;HPM_P2
2023/05/16 00:03:24;;;;;;;;;;;;;;;19.96;50.09;95260.16;10236340;28;1985;-71
2023/05/16 00:08:25;;;;;;;;;;;;;;;19.96;49.91;95247.00;10243918;28;1875;-70
2023/05/16 00:13:26;;;;;;;;;;;;;;;19.96;49.88;95248.84;10247071;28;2019;-71
2023/05/16 00:18:27;;;;;;;;;;;;;;;19.95;49.94;95252.50;10245380;28;1884;-71
2023/05/16 00:23:27;;;;;;;;;;;;;;;19.92;50.04;95237.31;10244723;28;2192;-71
2023/05/16 00:28:28;;;;;;;;;;;;;;;19.93;49.94;95234.38;10244826;28;1816;-71
2023/05/16 00:33:28;;;;;;;;;;;;;;;19.93;49.71;95239.66;10237535;28;2180;-71
2023/05/16 00:38:28;;;;;;;;;;;;;;;19.92;49.85;95232.03;10247617;28;1866;-71
2023/05/16 00:43:28;;;;;;;;;;;;;;;19.91;49.73;95235.72;10243298;28;4967;-71
2023/05/16 00:48:29;;;;;;;;;;;;;;;19.90;49.73;95234.97;10244969;28;1923;-70
2023/05/16 00:53:29;;;;;;;;;;;;;;;19.91;49.43;95231.25;10246026;28;1865;-71
2023/05/16 00:58:31;;;;;;;;;;;;;;;19.89;49.50;95236.00;10246867;28;1881;-70
2023/05/16 01:03:31;;;;;;;;;;;;;;;19.89;49.40;95245.75;10238135;28;1985;-70
2023/05/16 01:08:31;;;;;;;;;;;;;;;19.88;49.43;95239.72;10240821;28;1903;-70
2023/05/16 01:13:35;;;;;;;;;;;;;;;19.87;49.58;95240.78;10242450;28;1947;-70
2023/05/16 01:18:56;;;;;;;;;;;;;;;19.87;49.42;95234.72;10244716;28;2004;-70
2023/05/16 01:24:12;;;;;;;;;;;;;;;19.86;49.22;95230.53;10242700;28;2004;-71
2023/05/16 01:29:12;;;;;;;;;;;;;;;19.84;49.16;95222.94;10240070;28;1820;-70
2023/05/16 01:34:12;;;;;;;;;;;;;;;19.85;49.37;95216.59;10239666;28;1962;-69
2023/05/16 01:39:20;;;;;;;;;;;;;;;19.85;49.32;95221.06;10245725;28;1981;-70
2023/05/16 01:44:39;;;;;;;;;;;;;;;19.83;49.20;95215.31;10238076;28;5007;-70
2023/05/16 01:49:41;;;;;;;;;;;;;;;19.83;49.19;95216.09;10240403;28;1840;-70
2023/05/16 01:54:42;;;;;;;;;;;;;;;19.83;49.04;95202.16;10242657;28;1953;-70
2023/05/16 01:59:43;;;;;;;;;;;;;;;19.82;49.05;95200.59;10240837;28;2195;-70
2023/05/16 02:04:43;;;;;;;;;;;;;;;19.82;49.20;95211.13;10234819;28;1902;-70
2023/05/16 02:09:44;;;;;;;;;;;;;;;19.82;49.05;95211.13;10244439;28;2020;-70
2023/05/16 02:14:44;;;;;;;;;;;;;;;19.80;49.03;95218.50;10237520;28;2009;-68
2023/05/16 02:19:44;;;;;;;;;;;;;;;19.81;48.98;95215.59;10246388;28;1934;-71
2023/05/16 02:24:44;;;;;;;;;;;;;;;19.79;48.89;95222.19;10236991;28;1893;-71
2023/05/16 02:29:45;;;;;;;;;;;;;;;19.78;48.80;95212.75;10242429;28;1902;-71
2023/05/16 02:34:45;;;;;;;;;;;;;;;19.79;48.83;95224.81;10240455;28;1984;-70
2023/05/16 02:39:45;;;;;;;;;;;;;;;19.77;48.81;95224.31;10240105;28;4442;-70
2023/05/16 02:44:46;;;;;;;;;;;;;;;19.78;48.91;95220.66;10233495;28;1965;-71
2023/05/16 02:49:46;;;;;;;;;;;;;;;19.77;48.79;95221.69;10243121;28;1913;-70
2023/05/16 02:54:46;;;;;;;;;;;;;;;19.74;48.70;95215.13;10241440;28;2099;-70
2023/05/16 02:59:46;;;;;;;;;;;;;;;19.76;48.76;95218.31;10238962;28;1965;-71
2023/05/16 03:04:47;;;;;;;;;;;;;;;19.76;48.69;95220.16;10240253;28;2016;-70
2023/05/16 03:09:47;;;;;;;;;;;;;;;19.76;48.61;95220.16;10242660;28;2089;-70
2023/05/16 03:14:47;;;;;;;;;;;;;;;19.74;48.64;95217.78;10235981;28;1931;-70
2023/05/16 03:19:48;;;;;;;;;;;;;;;19.74;48.55;95219.63;10238995;28;1974;-70
2023/05/16 03:24:48;;;;;;;;;;;;;;;19.73;48.58;95221.47;10241744;28;1938;-70
2023/05/16 03:29:48;;;;;;;;;;;;;;;19.73;48.64;95216.22;10235404;28;2004;-70
2023/05/16 03:34:48;;;;;;;;;;;;;;;19.73;48.49;95218.06;10239825;28;2025;-70
2023/05/16 03:39:49;;;;;;;;;;;;;;;19.73;48.49;95216.22;10241721;28;4385;-70
2023/05/16 03:44:49;;;;;;;;;;;;;;;19.72;48.62;95211.25;10239049;28;2221;-70
2023/05/16 03:49:49;;;;;;;;;;;;;;;19.71;48.43;95209.66;10245843;29;1929;-70
2023/05/16 03:54:49;;;;;;;;;;;;;;;19.71;48.44;95207.81;10244121;28;1951;-70
2023/05/16 03:59:50;;;;;;;;;;;;;;;19.70;48.57;95208.13;10247171;28;1977;-70
2023/05/16 04:04:50;;;;;;;;;;;;;;;19.70;48.39;95205.50;10246813;28;1930;-70
2023/05/16 04:09:50;;;;;;;;;;;;;;;19.72;48.56;95211.25;10231053;29;2019;-70
2023/05/16 04:14:51;;;;;;;;;;;;;;;19.73;48.34;95203.06;10243210;28;2049;-69
2023/05/16 04:19:51;;;;;;;;;;;;;;;19.78;48.25;95210.13;10248931;28;1968;-70
2023/05/16 04:24:51;;;;;;;;;;;;;;;19.82;48.23;95217.19;10244484;28;2062;-70
2023/05/16 04:29:51;;;;;;;;;;;;;;;19.87;48.27;95219.72;10245188;28;2272;-70
2023/05/16 04:34:53;;;;;;;;;;;;;;;19.92;48.27;95224.16;10245287;28;1949;-70
2023/05/16 04:39:56;;;;;;;;;;;;;;;19.99;48.16;95228.00;10242756;28;4404;-70
2023/05/16 04:44:56;;;;;;;;;;;;;;;20.05;48.30;95221.59;10241897;28;1932;-70
2023/05/16 04:49:56;;;;;;;;;;;;;;;20.10;48.11;95221.56;10242777;28;1945;-71
2023/05/16 04:54:59;;;;;;;;;;;;;;;20.18;48.01;95223.56;10245599;28;1901;-70
2023/05/16 04:59:59;;;;;;;;;;;;;;;20.24;47.81;95216.41;10244971;28;1980;-71
2023/05/16 05:04:59;;;;;;;;;;;;;;;20.30;47.71;95217.13;10244932;28;2002;-70
2023/05/16 05:10:00;;;;;;;;;;;;;;;20.34;47.56;95224.16;10236870;28;1924;-67
2023/05/16 05:15:00;;;;;;;;;;;;;;;20.40;47.43;95225.69;10239816;28;1914;-67
2023/05/16 05:20:00;;;;;;;;;;;;;;;20.43;47.23;95222.47;10240866;28;1914;-67
2023/05/16 05:25:00;;;;;;;;;;;;;;;20.50;47.26;95233.44;10244542;28;1917;-70
2023/05/16 05:30:01;;;;;;;;;;;;;;;20.51;47.66;95227.06;10236083;28;1950;-70
2023/05/16 05:35:02;;;;;;;;;;;;;;;20.55;47.64;95222.81;10243566;28;1767;-70
2023/05/16 05:40:03;;;;;;;;;;;;;;;20.58;47.35;95218.81;10242253;28;4545;-69
2023/05/16 05:45:03;;;;;;;;;;;;;;;20.61;47.20;95221.66;10233038;28;1956;-67
2023/05/16 05:50:04;;;;;;;;;;;;;;;20.62;47.57;95227.72;10243593;28;1980;-68
2023/05/16 05:55:05;;;;;;;;;;;;;;;20.61;47.58;95219.03;10234931;28;2147;-67
2023/05/16 06:00:06;;;;;;;;;;;;;;;20.60;47.73;95219.31;10228167;28;2048;-67
2023/05/16 06:05:06;;;;;;;;;;;;;;;20.60;47.43;95221.94;10227254;28;1957;-68
2023/05/16 06:10:07;;;;;;;;;;;;;;;20.60;47.44;95212.22;10232623;28;1917;-68
2023/05/16 06:15:08;;;;;;;;;;;;;;;20.62;47.47;95212.72;10230159;28;1964;-68
2023/05/16 06:20:08;;;;;;;;;;;;;;;20.62;47.41;95215.34;10229407;28;1911;-68
2023/05/16 06:25:09;;;;;;;;;;;;;;;20.62;47.35;95225.88;10231732;29;1893;-67
2023/05/16 06:30:09;;;;;;;;;;;;;;;20.57;47.03;95223.31;10226763;28;2053;-67
2023/05/16 06:35:09;;;;;;;;;;;;;;;20.58;46.70;95216.19;10230447;28;1793;-67
2023/05/16 06:40:10;;;;;;;;;;;;;;;20.61;47.36;95213.75;10228714;29;2166;-64
2023/05/16 06:45:10;;;;;;;;;;;;;;;20.59;46.98;95221.16;10228832;28;1942;-65
2023/05/16 06:50:11;;;;;;;;;;;;;;;20.58;47.04;95222.25;10227966;28;2002;-64
2023/05/16 06:55:11;;;;;;;;;;;;;;;20.59;47.12;95231.69;10226740;28;2098;-66
2023/05/16 07:00:11;;;;;;;;;;;;;;;20.61;47.00;95228.81;10230620;28;1974;-65
2023/05/16 07:05:11;;;;;;;;;;;;;;;20.64;46.66;95220.31;10228461;28;1847;-68
2023/05/16 07:10:12;;;;;;;;;;;;;;;20.66;47.22;95211.06;10230471;29;1877;-68
2023/05/16 07:15:12;;;;;;;;;;;;;;;20.70;47.21;95216.53;10236434;28;1784;-68
2023/05/16 07:20:13;;;;;;;;;;;;;;;20.70;47.27;95211.25;10235140;28;2017;-67
2023/05/16 07:25:14;;;;;;;;;;;;;;;20.70;47.33;95209.41;10240432;28;1839;-67
2023/05/16 07:30:15;;;;;;;;;;;;;;;20.71;47.16;95208.34;10233839;28;1875;-68
2023/05/16 07:35:15;;;;;;;;;;;;;;;20.72;47.22;95209.13;10232281;28;1942;-67
2023/05/16 07:40:17;;;;;;;;;;;;;;;20.72;47.40;95238.88;10233420;28;4484;-68
2023/05/16 07:45:17;;;;;;;;;;;;;;;20.72;47.35;95233.63;10234796;28;1979;-67
2023/05/16 07:50:18;;;;;;;;;;;;;;;20.69;47.13;95242.09;10231781;28;1886;-66
2023/05/16 07:55:18;;;;;;;;;;;;;;;20.78;47.07;95250.13;10232594;28;2110;-67
2023/05/16 08:00:19;;;;;;;;;;;;;;;20.92;47.00;95250.94;10228271;28;1968;-67
2023/05/16 08:05:19;;;;;;;;;;;;;;;21.01;46.81;95255.31;10234145;28;1836;-68
2023/05/16 08:10:19;;;;;;;;;;;;;;;21.12;46.66;95258.59;10236489;28;1808;-71
2023/05/16 08:15:20;;;;;;;;;;;;;;;21.20;46.30;95262.41;10230662;28;1871;-68
2023/05/16 08:20:20;;;;;;;;;;;;;;;21.29;46.46;95260.69;10230828;28;1965;-68
2023/05/16 08:25:20;;;;;;;;;;;;;;;21.37;46.40;95263.41;10231677;28;1915;-69
2023/05/16 08:30:21;;;;;;;;;;;;;;;21.43;46.29;95256.97;10233061;28;1990;-68
2023/05/16 08:35:21;;;;;;;;;;;;;;;21.52;45.84;95265.00;10228738;28;1820;-66
2023/05/16 08:40:22;;;;;;;;;;;;;;;21.53;46.16;95266.59;10226542;28;4529;-69
2023/05/16 08:45:23;;;;;;;;;;;;;;;21.60;45.63;95269.63;10224496;29;1891;-67
2023/05/16 08:50:23;;;;;;;;;;;;;;;21.60;45.47;95261.69;10228783;28;2037;-69
2023/05/16 08:55:23;;;;;;;;;;;;;;;21.58;45.28;95264.63;10228639;28;1846;-67
2023/05/16 09:00:24;;;;;;;;;;;;;;;21.59;45.21;95265.44;10234050;28;1911;-68
2023/05/16 09:05:24;;;;;;;;;;;;;;;21.60;45.24;95261.69;10229442;28;1882;-68
2023/05/16 09:10:24;;;;;;;;;;;;;;;21.61;44.99;95258.78;10231868;28;1891;-68
2023/05/16 09:15:26;;;;;;;;;;;;;;;21.62;45.34;95254.28;10232241;28;1885;-67
2023/05/16 09:20:26;;;;;;;;;;;;;;;21.64;45.47;95246.84;10228837;28;1982;-67
2023/05/16 09:25:27;;;;;;;;;;;;;;;21.66;45.24;95231.53;10230411;28;1902;-67
2023/05/16 09:30:30;;;;;;;;;;;;;;;21.65;45.56;95233.41;10231247;28;2010;-67
2023/05/16 09:35:31;;;;;;;;;;;;;;;21.69;45.42;95244.13;10227565;28;1847;-67
2023/05/16 09:40:31;;;;;;;;;;;;;;;21.68;45.75;95247.84;10230636;28;4499;-68
2023/05/16 09:45:32;;;;;;;;;;;;;;;21.73;45.49;95245.91;10235020;28;2037;-66
2023/05/16 09:50:33;;;;;;;;;;;;;;;21.71;45.47;95252.53;10233960;28;1812;-67
2023/05/16 09:55:33;;;;;;;;;;;;;;;21.72;45.20;95249.59;10234251;28;1906;-68
2023/05/16 10:00:34;;;;;;;;;;;;;;;21.71;45.31;95248.06;10222993;28;1915;-68
2023/05/16 10:05:34;;;;;;;;;;;;;;;21.70;45.30;95251.75;10229487;28;1936;-68
2023/05/16 10:10:35;;;;;;;;;;;;;;;21.72;45.35;95251.47;10225924;28;1880;-67
2023/05/16 10:15:35;;;;;;;;;;;;;;;21.70;45.39;95251.75;10229813;28;1898;-68
2023/05/16 10:20:36;;;;;;;;;;;;;;;21.69;45.33;95259.97;10229828;28;1910;-67
2023/05/16 10:25:38;;;;;;;;;;;;;;;21.71;45.41;95258.59;10222596;28;1899;-67
2023/05/16 10:30:43;;;;;;;;;;;;;;;21.69;45.46;95260.75;10225933;28;1871;-67
2023/05/16 10:35:43;;;;;;;;;;;;;;;21.70;45.46;95269.47;10225944;28;1896;-68
2023/05/16 10:40:43;;;;;;;;;;;;;;;21.70;45.79;95264.94;10230376;28;4457;-69
2023/05/16 10:45:45;;;;;;;;;;;;;;;21.71;45.65;95271.00;10232928;28;1844;-68
2023/05/16 10:50:45;;;;;;;;;;;;;;;21.71;45.72;95268.38;10229543;28;1979;-67
2023/05/16 10:55:58;;;;;;;;;;;;;;;21.71;45.63;95271.78;10225526;28;1860;-68
2023/05/16 11:01:13;;;;;;;;;;;;;;;21.71;45.82;95273.66;10223599;28;1978;-68
2023/05/16 11:06:15;;;;;;;;;;;;;;;21.70;45.58;95275.50;10227312;28;1721;-66
2023/05/16 11:11:34;;;;;;;;;;;;;;;21.71;45.29;95271.00;10226334;28;1915;-68
2023/05/16 11:16:35;;;;;;;;;;;;;;;21.71;45.35;95271.00;10232331;28;1799;-67
2023/05/16 11:21:54;;;;;;;;;;;;;;;21.71;45.77;95278.91;10226572;28;1930;-67
2023/05/16 11:26:54;;;;;;;;;;;;;;;21.70;45.86;95282.66;10229138;28;2144;-66
2023/05/16 11:31:54;;;;;;;;;;;;;;;21.70;45.71;95266.81;10227623;28;1827;-67
2023/05/16 11:36:55;;;;;;;;;;;;;;;21.70;45.70;95256.28;10229174;28;2033;-66
2023/05/16 11:41:55;;;;;;;;;;;;;;;21.69;45.73;95258.13;10224599;28;4453;-65
2023/05/16 11:46:55;;;;;;;;;;;;;;;21.70;45.59;95266.81;10221811;28;1874;-64
2023/05/16 11:51:56;;;;;;;;;;;;;;;21.69;45.56;95260.75;10229999;28;1840;-64
2023/05/16 11:56:56;;;;;;;;;;;;;;;21.69;45.77;95254.69;10227930;28;1832;-63
2023/05/16 12:01:57;;;;;;;;;;;;;;;21.68;45.63;95247.84;10236516;28;1992;-65
2023/05/16 12:06:58;;;;;;;;;;;;;;;21.65;45.59;95254.50;10239164;28;1958;-64
2023/05/16 12:11:59;;;;;;;;;;;;;;;21.65;45.51;95251.06;10242695;28;1903;-64
2023/05/16 12:16:59;;;;;;;;;;;;;;;21.67;45.51;95251.56;10242734;28;1864;-68
2023/05/16 12:22:00;;;;;;;;;;;;;;;21.67;45.43;95254.19;10241387;28;2071;-68
2023/05/16 12:27:00;;;;;;;;;;;;;;;21.65;45.42;95243.94;10224335;28;1989;-65
2023/05/16 12:32:00;;;;;;;;;;;;;;;21.64;45.44;95244.22;10231773;28;2198;-64
2023/05/16 12:37:00;;;;;;;;;;;;;;;21.65;45.45;95240.53;10230709;28;1926;-64
2023/05/16 12:42:03;;;;;;;;;;;;;;;21.64;45.33;95242.38;10232929;28;4402;-66
2023/05/16 12:47:09;;;;;;;;;;;;;;;21.65;45.38;95240.53;10231972;28;1875;-63
2023/05/16 12:52:11;;;;;;;;;;;;;;;21.64;45.30;95238.94;10230913;28;1848;-64
2023/05/16 12:57:12;;;;;;;;;;;;;;;21.59;45.55;95236.41;10233034;28;1868;-63
2023/05/16 13:02:12;;;;;;;;;;;;;;;21.58;45.47;95234.84;10230923;28;1975;-65
2023/05/16 13:07:12;;;;;;;;;;;;;;;21.58;45.71;95230.34;10231339;28;1902;-65
2023/05/16 13:12:13;;;;;;;;;;;;;;;21.59;45.59;95228.50;10227266;28;2054;-64
2023/05/16 13:17:13;;;;;;;;;;;;;;;21.54;45.29;95232.00;10227801;28;1914;-65
2023/05/16 13:22:13;;;;;;;;;;;;;;;21.42;45.46;95236.19;10235503;28;1934;-64
2023/05/16 13:27:14;;;;;;;;;;;;;;;21.37;45.83;95238.94;10226282;28;1785;-64
2023/05/16 13:32:15;;;;;;;;;;;;;;;21.32;46.00;95241.63;10226845;28;2027;-65
2023/05/16 13:37:15;;;;;;;;;;;;;;;21.37;45.99;95254.75;10232133;28;1942;-65
2023/05/16 13:42:16;;;;;;;;;;;;;;;21.40;46.17;95264.69;10233583;28;4500;-63
2023/05/16 13:47:16;;;;;;;;;;;;;;;21.45;46.10;95270.66;10242569;28;1816;-65
2023/05/16 13:52:16;;;;;;;;;;;;;;;21.48;46.05;95269.31;10247987;28;1841;-61
2023/05/16 13:57:16;;;;;;;;;;;;;;;21.49;45.95;95262.97;10237874;28;1828;-66
2023/05/16 14:02:17;;;;;;;;;;;;;;;21.50;46.10;95267.94;10228899;28;2061;-65
2023/05/16 14:07:17;;;;;;;;;;;;;;;21.51;45.91;95268.75;10225220;28;1949;-66
2023/05/16 14:12:17;;;;;;;;;;;;;;;21.53;45.71;95272.66;10231057;28;1819;-65
2023/05/16 14:17:17;;;;;;;;;;;;;;;21.55;45.57;95272.34;10225113;29;1902;-67
2023/05/16 14:22:18;;;;;;;;;;;;;;;21.56;45.50;95273.91;10227264;28;1965;-65
2023/05/16 14:27:18;;;;;;;;;;;;;;;21.57;45.44;95278.13;10223927;28;2222;-66
2023/05/16 14:32:18;;;;;;;;;;;;;;;21.59;45.13;95282.03;10222245;28;1945;-67
2023/05/16 14:37:19;;;;;;;;;;;;;;;21.60;45.39;95290.72;10222540;28;2036;-67
2023/05/16 14:42:20;;;;;;;;;;;;;;;21.63;45.33;95293.56;10221004;28;4490;-64
2023/05/16 14:47:20;;;;;;;;;;;;;;;21.64;45.04;95299.59;10222719;28;1886;-64
2023/05/16 14:52:20;;;;;;;;;;;;;;;21.66;44.88;95313.28;10229068;28;1858;-67
2023/05/16 14:57:21;;;;;;;;;;;;;;;21.68;44.94;95313.78;10227369;28;1919;-65
2023/05/16 15:02:21;;;;;;;;;;;;;;;21.67;45.14;95314.88;10216402;28;1902;-61
2023/05/16 15:07:21;;;;;;;;;;;;;;;21.71;44.85;95324.56;10222535;28;1958;-64
2023/05/16 15:12:21;;;;;;;;;;;;;;;21.72;44.85;95333.25;10222666;28;1859;-65
2023/05/16 15:17:22;;;;;;;;;;;;;;;21.71;44.84;95329.84;10223497;29;1895;-63
2023/05/16 15:22:22;;;;;;;;;;;;;;;21.74;44.41;95341.66;10222117;28;2096;-62
2023/05/16 15:27:22;;;;;;;;;;;;;;;21.73;44.35;95334.81;10221787;28;1836;-64
2023/05/16 15:32:23;;;;;;;;;;;;;;;21.72;44.55;95338.53;10221116;28;1908;-63
2023/05/16 15:37:23;;;;;;;;;;;;;;;21.72;44.50;95349.09;10193649;28;1062491;-63
2023/05/16 15:42:23;;;;;;;;;;;;;;;21.69;44.48;95352.28;10233793;28;4491;-64
2023/05/16 15:47:24;;;;;;;;;;;;;;;21.69;44.36;95349.66;10228093;28;2223;-63
2023/05/16 15:52:24;;;;;;;;;;;;;;;21.68;44.28;95353.34;10230512;28;2065;-64
2023/05/16 15:57:24;;;;;;;;;;;;;;;21.66;44.23;95348.38;10233179;28;1843;-62
2023/05/16 16:02:24;;;;;;;;;;;;;;;21.66;44.18;95350.22;10228426;28;2169;-61
2023/05/16 16:07:25;;;;;;;;;;;;;;;21.66;44.23;95343.09;10207325;29;1924;-64
2023/05/16 16:12:27;;;;;;;;;;;;;;;21.64;44.21;95347.09;10228046;28;1891;-63
2023/05/16 16:17:28;;;;;;;;;;;;;;;21.63;44.45;95353.44;10225260;28;2552;-63
2023/05/16 16:22:28;;;;;;;;;;;;;;;21.64;44.21;95355.00;10230310;28;1989;-62
2023/05/16 16:27:28;;;;;;;;;;;;;;;21.64;44.17;95362.91;10229190;28;1828;-64
2023/05/16 16:32:28;;;;;;;;;;;;;;;21.62;44.16;95375.59;10230913;28;1845;-65
2023/05/16 16:37:29;;;;;;;;;;;;;;;21.61;44.45;95371.41;10233147;28;1877;-65
2023/05/16 16:42:30;;;;;;;;;;;;;;;21.57;44.23;95376.50;10238132;28;4429;-64
2023/05/16 16:47:31;;;;;;;;;;;;;;;21.58;44.50;95385.16;10236924;28;1909;-65
2023/05/16 16:52:32;;;;;;;;;;;;;;;21.59;44.63;95384.91;10239102;28;2119;-64
2023/05/16 16:57:32;;;;;;;;;;;;;;;21.61;44.30;95389.88;10235410;28;1853;-65
2023/05/16 17:02:32;;;;;;;;;;;;;;;21.59;44.57;95397.31;10234373;28;1974;-65
2023/05/16 17:07:33;;;;;;;;;;;;;;;21.59;44.29;95405.22;10242147;28;1963;-65
2023/05/16 17:12:33;;;;;;;;;;;;;;;21.53;44.80;95403.72;10239451;28;1853;-63
2023/05/16 17:17:34;;;;;;;;;;;;;;;21.43;45.29;95414.44;10237140;28;2118;-61
2023/05/16 17:22:35;;;;;;;;;;;;;;;21.36;45.46;95408.72;10235779;28;2113;-64
2023/05/16 17:27:36;;;;;;;;;;;;;;;21.29;45.65;95409.06;10224968;28;2048;-64
2023/05/16 17:32:36;;;;;;;;;;;;;;;21.18;46.05;95407.69;10236434;28;1831;-64
2023/05/16 17:37:36;;;;;;;;;;;;;;;21.14;45.92;95405.88;10240860;28;1878;-64
2023/05/16 17:42:37;;;;;;;;;;;;;;;21.06;46.09;95409.97;10233472;28;1977;-63
2023/05/16 17:47:38;;;;;;;;;;;;;;;20.99;46.20;95405.00;10233304;28;1895;-63
2023/05/16 17:52:39;;;;;;;;;;;;;;;20.92;45.86;95415.09;10243248;28;1836;-64
2023/05/16 17:57:40;;;;;;;;;;;;;;;20.85;46.30;95416.53;10237640;28;1908;-63
2023/05/16 18:02:40;;;;;;;;;;;;;;;20.78;45.96;95414.22;10231698;28;1914;-64
2023/05/16 18:07:40;;;;;;;;;;;;;;;20.77;46.28;95420.53;10233548;28;2166;-62
2023/05/16 18:12:41;;;;;;;;;;;;;;;20.74;46.55;95421.13;10239081;28;2167;-62
2023/05/16 18:17:41;;;;;;;;;;;;;;;20.70;46.54;95435.94;10230181;29;1888;-59
2023/05/16 18:22:41;;;;;;;;;;;;;;;20.64;46.68;95429.16;10229466;28;2046;-61
2023/05/16 18:27:41;;;;;;;;;;;;;;;20.59;46.58;95442.38;10232881;28;1882;-61
2023/05/16 18:32:42;;;;;;;;;;;;;;;20.54;46.57;95445.06;10233546;28;1963;-62
2023/05/16 18:37:42;;;;;;;;;;;;;;;20.47;46.37;95447.25;10231442;29;1868;-62
2023/05/16 18:42:42;;;;;;;;;;;;;;;20.38;46.14;95459.44;10231427;28;4438;-62
2023/05/16 18:47:43;;;;;;;;;;;;;;;20.29;46.03;95469.00;10234872;28;2023;-61
2023/05/16 18:52:43;;;;;;;;;;;;;;;20.21;46.23;95477.53;10235995;28;1979;-61
2023/05/16 18:57:44;;;;;;;;;;;;;;;20.13;46.07;95481.47;10233513;28;1952;-63
2023/05/16 19:02:45;;;;;;;;;;;;;;;20.04;45.60;95498.16;10236580;28;1973;-62
2023/05/16 19:07:45;;;;;;;;;;;;;;;19.94;45.51;95509.56;10229003;28;2018;-60
2023/05/16 19:12:47;;;;;;;;;;;;;;;19.90;45.37;95513.00;10233137;28;1987;-60
2023/05/16 19:17:47;;;;;;;;;;;;;;;19.85;45.42;95513.03;10232004;28;1876;-61
2023/05/16 19:22:48;;;;;;;;;;;;;;;19.93;46.02;95515.06;10234772;28;1918;-62
2023/05/16 19:27:48;;;;;;;;;;;;;;;20.02;46.59;95524.75;10239519;28;1886;-62
2023/05/16 19:32:50;;;;;;;;;;;;;;;20.06;46.96;95532.88;10231143;28;1832;-62
2023/05/16 19:37:50;;;;;;;;;;;;;;;20.09;47.35;95545.50;10235195;29;1888;-63
2023/05/16 19:42:50;;;;;;;;;;;;;;;20.12;47.81;95555.44;10235460;28;4374;-63
2023/05/16 19:47:50;;;;;;;;;;;;;;;20.14;47.77;95554.13;10230760;28;1866;-61
2023/05/16 19:52:51;;;;;;;;;;;;;;;20.16;47.88;95561.72;10234963;28;1807;-63
2023/05/16 19:57:51;;;;;;;;;;;;;;;20.17;47.96;95563.31;10234449;28;1892;-63
2023/05/16 20:02:51;;;;;;;;;;;;;;;20.18;48.32;95567.50;10234857;28;2110;-63
2023/05/16 20:07:53;;;;;;;;;;;;;;;20.19;48.20;95580.44;10233353;28;1887;-63
2023/05/16 20:12:53;;;;;;;;;;;;;;;20.20;48.35;95573.31;10233245;28;1916;-62
2023/05/16 20:17:53;;;;;;;;;;;;;;;20.20;48.31;95587.25;10235296;28;1907;-63
2023/05/16 20:22:54;;;;;;;;;;;;;;;20.19;48.40;95585.72;10239443;28;1999;-63
2023/05/16 20:27:54;;;;;;;;;;;;;;;20.20;48.46;95578.56;10243480;28;1918;-63
2023/05/16 20:32:54;;;;;;;;;;;;;;;20.20;48.39;95582.00;10242187;28;1848;-63
2023/05/16 20:37:55;;;;;;;;;;;;;;;20.19;48.24;95584.88;10243360;29;1843;-63
2023/05/16 20:42:55;;;;;;;;;;;;;;;20.17;48.44;95592.25;10242695;28;4385;-63
2023/05/16 20:47:55;;;;;;;;;;;;;;;20.20;48.33;95591.72;10227469;28;1945;-62
2023/05/16 20:52:55;;;;;;;;;;;;;;;20.18;48.37;95597.25;10242133;28;1795;-63
2023/05/16 20:57:56;;;;;;;;;;;;;;;20.18;48.37;95593.81;10242887;28;1793;-63
2023/05/16 21:02:56;;;;;;;;;;;;;;;20.17;48.38;95605.44;10241674;28;2137;-63
2023/05/16 21:07:57;;;;;;;;;;;;;;;20.17;48.59;95615.94;10239483;29;1832;-63
2023/05/16 21:12:57;;;;;;;;;;;;;;;20.17;48.52;95608.81;10234299;28;1891;-63
2023/05/16 21:17:57;;;;;;;;;;;;;;;20.16;48.68;95611.72;10239116;28;1995;-62
2023/05/16 21:22:57;;;;;;;;;;;;;;;20.15;48.69;95610.19;10238403;28;1910;-63
2023/05/16 21:27:59;;;;;;;;;;;;;;;20.16;48.45;95614.38;10238945;28;1883;-63
2023/05/16 21:32:59;;;;;;;;;;;;;;;20.14;48.85;95624.38;10242242;28;1808;-63
2023/05/16 21:37:59;;;;;;;;;;;;;;;20.14;48.54;95629.66;10241612;28;1895;-63
2023/05/16 21:42:59;;;;;;;;;;;;;;;20.13;48.70;95639.38;10240801;28;4452;-62
2023/05/16 21:48:00;;;;;;;;;;;;;;;20.13;48.73;95649.13;10239881;28;1919;-63
2023/05/16 21:53:00;;;;;;;;;;;;;;;20.12;48.84;95650.19;10242245;28;1800;-63
2023/05/16 21:58:00;;;;;;;;;;;;;;;20.12;48.63;95658.06;10239693;28;2005;-63
2023/05/16 22:03:00;;;;;;;;;;;;;;;20.12;48.78;95658.06;10239998;28;1967;-63
2023/05/16 22:08:01;;;;;;;;;;;;;;;20.10;48.53;95652.31;10241030;28;1844;-63
2023/05/16 22:13:01;;;;;;;;;;;;;;;20.09;48.62;95658.63;10236696;28;1879;-63
2023/05/16 22:18:01;;;;;;;;;;;;;;;20.08;48.63;95672.84;10241143;28;2003;-63
2023/05/16 22:23:01;;;;;;;;;;;;;;;20.08;48.50;95667.56;10246277;28;1968;-62
2023/05/16 22:28:02;;;;;;;;;;;;;;;20.06;48.42;95669.69;10240970;28;1840;-62
2023/05/16 22:33:03;;;;;;;;;;;;;;;20.06;48.69;95669.69;10237209;28;1879;-63
2023/05/16 22:38:03;;;;;;;;;;;;;;;20.05;48.57;95674.16;10242432;28;1757;-64
2023/05/16 22:43:04;;;;;;;;;;;;;;;20.05;48.50;95673.41;10240160;28;4431;-64
2023/05/16 22:48:04;;;;;;;;;;;;;;;20.03;48.48;95678.16;10234307;28;1868;-63
2023/05/16 22:53:04;;;;;;;;;;;;;;;20.03;48.47;95678.91;10238701;28;2447;-63
2023/05/16 22:58:04;;;;;;;;;;;;;;;20.01;48.46;95678.41;10237134;28;1860;-63
2023/05/16 23:03:05;;;;;;;;;;;;;;;20.01;48.57;95688.16;10234188;28;1915;-63
2023/05/16 23:08:05;;;;;;;;;;;;;;;20.01;48.51;95686.28;10241440;28;1769;-63
2023/05/16 23:13:05;;;;;;;;;;;;;;;19.98;48.64;95686.06;10232848;28;1858;-63
2023/05/16 23:18:05;;;;;;;;;;;;;;;19.99;48.44;95690.28;10234443;28;2038;-63
2023/05/16 23:23:06;;;;;;;;;;;;;;;19.97;48.40;95698.41;10235780;28;1971;-63
2023/05/16 23:28:06;;;;;;;;;;;;;;;19.97;48.43;95702.91;10234792;28;1833;-63
2023/05/16 23:33:06;;;;;;;;;;;;;;;19.98;48.38;95701.84;10237913;28;1971;-63
2023/05/16 23:38:06;;;;;;;;;;;;;;;19.96;48.37;95704.75;10238678;28;1850;-63
2023/05/16 23:43:07;;;;;;;;;;;;;;;19.95;48.53;95712.88;10233311;28;4588;-63
2023/05/16 23:48:07;;;;;;;;;;;;;;;19.94;48.53;95706.06;10235991;28;2025;-63
2023/05/16 23:53:07;;;;;;;;;;;;;;;19.94;48.57;95722.66;10235374;28;1910;-63
2023/05/16 23:58:07;;;;;;;;;;;;;;;19.94;48.38;95724.47;10244762;28;1848;-63
